sensor_id;sensor_type;location;lat;lon;timestamp;pressure;altitude;pressure_sealevel;temperature
75431;BMP280;64127;51.488;5.462;2023-10-13T00:02:19;101032.13;;;19.76
75431;BMP280;64127;51.488;5.462;2023-10-13T00:04:54;101041.00;;;19.81
75431;BMP280;64127;51.488;5.462;2023-10-13T00:07:28;101027.72;;;19.81
75431;BMP280;64127;51.488;5.462;2023-10-13T00:10:00;101035.72;;;19.82
75431;BMP280;64127;51.488;5.462;2023-10-13T00:12:33;101016.16;;;19.76
75431;BMP280;64127;51.488;5.462;2023-10-13T00:15:09;101018.84;;;19.82
75431;BMP280;64127;51.488;5.462;2023-10-13T00:17:45;101020.63;;;19.84
75431;BMP280;64127;51.488;5.462;2023-10-13T00:20:17;101010.91;;;19.86
75431;BMP280;64127;51.488;5.462;2023-10-13T00:23:03;101009.94;;;19.80
75431;BMP280;64127;51.488;5.462;2023-10-13T00:25:35;101004.69;;;19.83
75431;BMP280;64127;51.488;5.462;2023-10-13T00:28:18;101002.88;;;19.82
75431;BMP280;64127;51.488;5.462;2023-10-13T00:31:07;100996.66;;;19.78
75431;BMP280;64127;51.488;5.462;2023-10-13T00:33:43;101002.88;;;19.79
75431;BMP280;64127;51.488;5.462;2023-10-13T00:36:17;100992.22;;;19.79
75431;BMP280;64127;51.488;5.462;2023-10-13T00:38:51;100993.97;;;19.80
75431;BMP280;64127;51.488;5.462;2023-10-13T00:41:24;100994.88;;;19.79
75431;BMP280;64127;51.488;5.462;2023-10-13T00:44:16;100996.66;;;19.80
75431;BMP280;64127;51.488;5.462;2023-10-13T00:46:48;100979.78;;;19.74
75431;BMP280;64127;51.488;5.462;2023-10-13T00:49:26;100990.44;;;19.78
75431;BMP280;64127;51.488;5.462;2023-10-13T00:52:02;100987.75;;;19.76
75431;BMP280;64127;51.488;5.462;2023-10-13T00:54:37;100986.00;;;19.75
75431;BMP280;64127;51.488;5.462;2023-10-13T00:57:13;100985.09;;;19.74
75431;BMP280;64127;51.488;5.462;2023-10-13T01:00:07;100976.22;;;19.72
75431;BMP280;64127;51.488;5.462;2023-10-13T01:02:56;100977.09;;;19.73
75431;BMP280;64127;51.488;5.462;2023-10-13T01:05:29;100969.13;;;19.74
75431;BMP280;64127;51.488;5.462;2023-10-13T01:08:03;100963.78;;;19.71
75431;BMP280;64127;51.488;5.462;2023-10-13T01:10:35;100964.69;;;19.72
75431;BMP280;64127;51.488;5.462;2023-10-13T01:13:09;100963.78;;;19.68
75431;BMP280;64127;51.488;5.462;2023-10-13T01:15:43;100955.78;;;19.65
75431;BMP280;64127;51.488;5.462;2023-10-13T01:18:16;100947.81;;;19.68
75431;BMP280;64127;51.488;5.462;2023-10-13T01:20:48;100949.59;;;19.71
75431;BMP280;64127;51.488;5.462;2023-10-13T01:23:26;100949.59;;;19.71
75431;BMP280;64127;51.488;5.462;2023-10-13T01:26:00;100935.41;;;19.70
75431;BMP280;64127;51.488;5.462;2023-10-13T01:28:37;100933.66;;;19.72
75431;BMP280;64127;51.488;5.462;2023-10-13T01:31:16;100931.00;;;19.72
75431;BMP280;64127;51.488;5.462;2023-10-13T01:34:19;100925.69;;;19.72
75431;BMP280;64127;51.488;5.462;2023-10-13T01:36:55;100923.03;;;19.76
75431;BMP280;64127;51.488;5.462;2023-10-13T01:39:27;100916.81;;;19.75
75431;BMP280;64127;51.488;5.462;2023-10-13T01:42:00;100909.72;;;19.76
75431;BMP280;64127;51.488;5.462;2023-10-13T01:44:33;100906.16;;;19.75
75431;BMP280;64127;51.488;5.462;2023-10-13T01:47:05;100902.59;;;19.76
75431;BMP280;64127;51.488;5.462;2023-10-13T01:49:39;100891.94;;;19.73
75431;BMP280;64127;51.488;5.462;2023-10-13T01:52:15;100896.41;;;19.76
75431;BMP280;64127;51.488;5.462;2023-10-13T01:54:48;100891.06;;;19.74
75431;BMP280;64127;51.488;5.462;2023-10-13T01:57:22;100884.88;;;19.75
75431;BMP280;64127;51.488;5.462;2023-10-13T01:59:56;100869.75;;;19.66
75431;BMP280;64127;51.488;5.462;2023-10-13T02:02:28;100880.44;;;19.74
75431;BMP280;64127;51.488;5.462;2023-10-13T02:05:03;100869.78;;;19.74
75431;BMP280;64127;51.488;5.462;2023-10-13T02:07:35;100869.81;;;19.76
75431;BMP280;64127;51.488;5.462;2023-10-13T02:10:11;100863.56;;;19.70
75431;BMP280;64127;51.488;5.462;2023-10-13T02:12:44;100864.47;;;19.76
75431;BMP280;64127;51.488;5.462;2023-10-13T02:15:16;100862.72;;;19.78
75431;BMP280;64127;51.488;5.462;2023-10-13T02:17:57;100862.69;;;19.74
75431;BMP280;64127;51.488;5.462;2023-10-13T02:20:31;100869.81;;;19.76
75431;BMP280;64127;51.488;5.462;2023-10-13T02:23:13;100860.03;;;19.78
75431;BMP280;64127;51.488;5.462;2023-10-13T02:25:45;100864.47;;;19.77
75431;BMP280;64127;51.488;5.462;2023-10-13T02:28:18;100861.81;;;19.77
75431;BMP280;64127;51.488;5.462;2023-10-13T02:31:04;100841.38;;;19.68
75431;BMP280;64127;51.488;5.462;2023-10-13T02:33:37;100850.28;;;19.75
75431;BMP280;64127;51.488;5.462;2023-10-13T02:36:16;100847.63;;;19.77
75431;BMP280;64127;51.488;5.462;2023-10-13T02:38:55;100840.53;;;19.79
75431;BMP280;64127;51.488;5.462;2023-10-13T02:41:29;100835.22;;;19.82
75431;BMP280;64127;51.488;5.462;2023-10-13T02:44:01;100839.69;;;19.83
75431;BMP280;64127;51.488;5.462;2023-10-13T02:46:37;100821.91;;;19.82
75431;BMP280;64127;51.488;5.462;2023-10-13T02:49:12;100817.50;;;19.79
75431;BMP280;64127;51.488;5.462;2023-10-13T02:51:45;100792.59;;;19.69
75431;BMP280;64127;51.488;5.462;2023-10-13T02:54:17;100796.19;;;19.78
75431;BMP280;64127;51.488;5.462;2023-10-13T02:56:52;100790.84;;;19.78
75431;BMP280;64127;51.488;5.462;2023-10-13T02:59:32;100793.50;;;19.78
75431;BMP280;64127;51.488;5.462;2023-10-13T03:02:18;100790.84;;;19.76
75431;BMP280;64127;51.488;5.462;2023-10-13T03:05:01;100780.22;;;19.78
75431;BMP280;64127;51.488;5.462;2023-10-13T03:07:41;100777.56;;;19.81
75431;BMP280;64127;51.488;5.462;2023-10-13T03:10:16;100761.59;;;19.81
75431;BMP280;64127;51.488;5.462;2023-10-13T03:12:51;100758.06;;;19.82
75431;BMP280;64127;51.488;5.462;2023-10-13T03:15:23;100747.41;;;19.76
75431;BMP280;64127;51.488;5.462;2023-10-13T03:18:03;100750.94;;;19.78
75431;BMP280;64127;51.488;5.462;2023-10-13T03:20:38;100739.41;;;19.77
75431;BMP280;64127;51.488;5.462;2023-10-13T03:23:13;100748.28;;;19.81
75431;BMP280;64127;51.488;5.462;2023-10-13T03:25:45;100734.97;;;19.78
75431;BMP280;64127;51.488;5.462;2023-10-13T03:28:22;100740.31;;;19.78
75431;BMP280;64127;51.488;5.462;2023-10-13T03:30:57;100732.31;;;19.81
75431;BMP280;64127;51.488;5.462;2023-10-13T03:33:33;100719.00;;;19.78
75431;BMP280;64127;51.488;5.462;2023-10-13T03:36:05;100711.03;;;19.81
75431;BMP280;64127;51.488;5.462;2023-10-13T03:38:38;100713.69;;;19.81
75431;BMP280;64127;51.488;5.462;2023-10-13T03:41:11;100711.94;;;19.83
75431;BMP280;64127;51.488;5.462;2023-10-13T03:43:51;100697.72;;;19.84
75431;BMP280;64127;51.488;5.462;2023-10-13T03:46:39;100684.44;;;19.85
75431;BMP280;64127;51.488;5.462;2023-10-13T03:49:17;100688.00;;;19.86
75431;BMP280;64127;51.488;5.462;2023-10-13T03:51:57;100687.09;;;19.85
75431;BMP280;64127;51.488;5.462;2023-10-13T03:54:29;100681.75;;;19.84
75431;BMP280;64127;51.488;5.462;2023-10-13T03:57:02;100670.22;;;19.83
75431;BMP280;64127;51.488;5.462;2023-10-13T03:59:42;100679.13;;;19.82
75431;BMP280;64127;51.488;5.462;2023-10-13T04:02:19;100658.72;;;19.75
75431;BMP280;64127;51.488;5.462;2023-10-13T04:04:56;100671.13;;;19.88
75431;BMP280;64127;51.488;5.462;2023-10-13T04:07:28;100656.91;;;19.91
75431;BMP280;64127;51.488;5.462;2023-10-13T04:10:32;100648.94;;;19.91
75431;BMP280;64127;51.488;5.462;2023-10-13T04:13:23;100633.84;;;19.87
75431;BMP280;64127;51.488;5.462;2023-10-13T04:16:14;100632.09;;;19.92
75431;BMP280;64127;51.488;5.462;2023-10-13T04:18:55;100641.84;;;19.94
75431;BMP280;64127;51.488;5.462;2023-10-13T04:21:27;100643.63;;;19.95
75431;BMP280;64127;51.488;5.462;2023-10-13T04:24:12;100637.41;;;19.95
75431;BMP280;64127;51.488;5.462;2023-10-13T04:26:59;100639.19;;;19.96
75431;BMP280;64127;51.488;5.462;2023-10-13T04:29:43;100634.75;;;19.95
75431;BMP280;64127;51.488;5.462;2023-10-13T04:32:28;100632.97;;;19.97
75431;BMP280;64127;51.488;5.462;2023-10-13T04:35:01;100628.56;;;19.93
75431;BMP280;64127;51.488;5.462;2023-10-13T04:38:00;100637.41;;;19.95
75431;BMP280;64127;51.488;5.462;2023-10-13T04:40:49;100644.53;;;19.96
75431;BMP280;64127;51.488;5.462;2023-10-13T04:43:33;100648.94;;;19.95
75431;BMP280;64127;51.488;5.462;2023-10-13T04:46:09;100641.84;;;19.99
75431;BMP280;64127;51.488;5.462;2023-10-13T04:49:07;100648.97;;;20.00
75431;BMP280;64127;51.488;5.462;2023-10-13T04:51:42;100640.97;;;20.00
75431;BMP280;64127;51.488;5.462;2023-10-13T04:54:30;100629.41;;;19.98
75431;BMP280;64127;51.488;5.462;2023-10-13T04:57:19;100630.28;;;19.97
75431;BMP280;64127;51.488;5.462;2023-10-13T05:00:05;100637.41;;;19.98
75431;BMP280;64127;51.488;5.462;2023-10-13T05:02:46;100634.75;;;19.98
75431;BMP280;64127;51.488;5.462;2023-10-13T05:05:28;100635.66;;;20.00
75431;BMP280;64127;51.488;5.462;2023-10-13T05:08:19;100596.63;;;19.90
75431;BMP280;64127;51.488;5.462;2023-10-13T05:11:12;100617.88;;;20.02
75431;BMP280;64127;51.488;5.462;2023-10-13T05:14:03;100607.25;;;20.02
75431;BMP280;64127;51.488;5.462;2023-10-13T05:16:53;100597.47;;;20.02
75431;BMP280;64127;51.488;5.462;2023-10-13T05:19:44;100577.94;;;20.05
75431;BMP280;64127;51.488;5.462;2023-10-13T05:22:35;100569.97;;;20.05
75431;BMP280;64127;51.488;5.462;2023-10-13T05:25:26;100555.78;;;20.06
75431;BMP280;64127;51.488;5.462;2023-10-13T05:28:16;100553.09;;;20.09
75431;BMP280;64127;51.488;5.462;2023-10-13T05:31:08;100548.63;;;20.11
75431;BMP280;64127;51.488;5.462;2023-10-13T05:33:59;100543.34;;;20.08
75431;BMP280;64127;51.488;5.462;2023-10-13T05:37:09;100548.63;;;20.11
75431;BMP280;64127;51.488;5.462;2023-10-13T05:40:00;100546.88;;;20.11
75431;BMP280;64127;51.488;5.462;2023-10-13T05:42:51;100553.97;;;20.11
75431;BMP280;64127;51.488;5.462;2023-10-13T05:45:41;100546.00;;;20.08
75431;BMP280;64127;51.488;5.462;2023-10-13T05:48:36;100534.47;;;20.09
75431;BMP280;64127;51.488;5.462;2023-10-13T05:51:34;100526.47;;;20.09
75431;BMP280;64127;51.488;5.462;2023-10-13T05:54:19;100536.25;;;20.10
75431;BMP280;64127;51.488;5.462;2023-10-13T05:57:10;100536.25;;;20.10
75431;BMP280;64127;51.488;5.462;2023-10-13T06:00:00;100532.66;;;20.11
75431;BMP280;64127;51.488;5.462;2023-10-13T06:02:51;100522.03;;;20.11
75431;BMP280;64127;51.488;5.462;2023-10-13T06:05:41;100529.16;;;20.09
75431;BMP280;64127;51.488;5.462;2023-10-13T06:08:32;100533.56;;;20.13
75431;BMP280;64127;51.488;5.462;2023-10-13T06:11:22;100532.66;;;20.14
75431;BMP280;64127;51.488;5.462;2023-10-13T06:14:13;100529.16;;;20.09
75431;BMP280;64127;51.488;5.462;2023-10-13T06:17:03;100528.25;;;20.07
75431;BMP280;64127;51.488;5.462;2023-10-13T06:19:54;100519.38;;;20.08
75431;BMP280;64127;51.488;5.462;2023-10-13T06:22:48;100520.25;;;20.13
75431;BMP280;64127;51.488;5.462;2023-10-13T06:25:39;100525.59;;;20.13
75431;BMP280;64127;51.488;5.462;2023-10-13T06:28:29;100522.00;;;20.14
75431;BMP280;64127;51.488;5.462;2023-10-13T06:31:14;100511.34;;;20.14
75431;BMP280;64127;51.488;5.462;2023-10-13T06:33:58;100518.44;;;20.18
75431;BMP280;64127;51.488;5.462;2023-10-13T06:36:30;100501.59;;;20.16
75431;BMP280;64127;51.488;5.462;2023-10-13T06:39:02;100518.44;;;20.21
75431;BMP280;64127;51.488;5.462;2023-10-13T06:42:06;100500.72;;;20.20
75431;BMP280;64127;51.488;5.462;2023-10-13T06:44:38;100488.25;;;20.22
75431;BMP280;64127;51.488;5.462;2023-10-13T06:47:12;100484.75;;;20.20
75431;BMP280;64127;51.488;5.462;2023-10-13T06:49:44;100471.44;;;20.12
75431;BMP280;64127;51.488;5.462;2023-10-13T06:52:18;100477.63;;;20.23
75431;BMP280;64127;51.488;5.462;2023-10-13T06:54:51;100485.59;;;20.31
75431;BMP280;64127;51.488;5.462;2023-10-13T06:57:23;100486.53;;;20.27
75431;BMP280;64127;51.488;5.462;2023-10-13T06:59:55;100483.84;;;20.27
75431;BMP280;64127;51.488;5.462;2023-10-13T07:02:27;100475.84;;;20.30
75431;BMP280;64127;51.488;5.462;2023-10-13T07:05:06;100474.97;;;20.30
75431;BMP280;64127;51.488;5.462;2023-10-13T07:07:43;100465.19;;;20.30
75431;BMP280;64127;51.488;5.462;2023-10-13T07:10:16;100463.41;;;20.32
75431;BMP280;64127;51.488;5.462;2023-10-13T07:12:48;100466.94;;;20.31
75431;BMP280;64127;51.488;5.462;2023-10-13T07:15:21;100458.06;;;20.32
75431;BMP280;64127;51.488;5.462;2023-10-13T07:17:59;100439.44;;;20.23
75431;BMP280;64127;51.488;5.462;2023-10-13T07:20:32;100448.34;;;20.30
75431;BMP280;64127;51.488;5.462;2023-10-13T07:23:06;100452.75;;;20.32
75431;BMP280;64127;51.488;5.462;2023-10-13T07:25:40;100442.09;;;20.34
75431;BMP280;64127;51.488;5.462;2023-10-13T07:28:12;100425.25;;;20.30
75431;BMP280;64127;51.488;5.462;2023-10-13T07:30:47;100437.66;;;20.37
75431;BMP280;64127;51.488;5.462;2023-10-13T07:33:40;100439.38;;;20.43
75431;BMP280;64127;51.488;5.462;2023-10-13T07:36:13;100428.72;;;20.43
75431;BMP280;64127;51.488;5.462;2023-10-13T07:38:49;100436.69;;;20.47
75431;BMP280;64127;51.488;5.462;2023-10-13T07:41:52;100445.56;;;20.49
75431;BMP280;64127;51.488;5.462;2023-10-13T07:44:36;100433.09;;;20.54
75431;BMP280;64127;51.488;5.462;2023-10-13T07:47:08;100436.59;;;20.59
75431;BMP280;64127;51.488;5.462;2023-10-13T07:49:43;100427.72;;;20.65
75431;BMP280;64127;51.488;5.462;2023-10-13T07:52:15;100424.06;;;20.72
75431;BMP280;64127;51.488;5.462;2023-10-13T07:54:57;100424.91;;;20.82
75431;BMP280;64127;51.488;5.462;2023-10-13T07:57:43;100427.53;;;20.88
75431;BMP280;64127;51.488;5.462;2023-10-13T08:00:30;100407.16;;;20.82
75431;BMP280;64127;51.488;5.462;2023-10-13T08:03:17;100408.84;;;20.89
75431;BMP280;64127;51.488;5.462;2023-10-13T08:06:13;100415.06;;;20.90
75431;BMP280;64127;51.488;5.462;2023-10-13T08:08:48;100403.50;;;20.89
75431;BMP280;64127;51.488;5.462;2023-10-13T08:11:26;100409.75;;;20.88
75431;BMP280;64127;51.488;5.462;2023-10-13T08:14:06;100420.34;;;20.93
75431;BMP280;64127;51.488;5.462;2023-10-13T08:17:09;100415.03;;;20.94
75431;BMP280;64127;51.488;5.462;2023-10-13T08:19:45;100406.13;;;20.98
75431;BMP280;64127;51.488;5.462;2023-10-13T08:22:18;100409.63;;;21.02
75431;BMP280;64127;51.488;5.462;2023-10-13T08:24:52;100397.16;;;21.04
75431;BMP280;64127;51.488;5.462;2023-10-13T08:27:24;100388.25;;;21.08
75431;BMP280;64127;51.488;5.462;2023-10-13T08:30:21;100395.28;;;21.18
75431;BMP280;64127;51.488;5.462;2023-10-13T08:33:03;100398.78;;;21.24
75431;BMP280;64127;51.488;5.462;2023-10-13T08:35:50;100392.53;;;21.29
75431;BMP280;64127;51.488;5.462;2023-10-13T08:38:41;100386.19;;;21.37
75431;BMP280;64127;51.488;5.462;2023-10-13T08:41:36;100383.53;;;21.40
75431;BMP280;64127;51.488;5.462;2023-10-13T08:44:29;100370.16;;;21.42
75431;BMP280;64127;51.488;5.462;2023-10-13T08:47:08;100371.84;;;21.47
75431;BMP280;64127;51.488;5.462;2023-10-13T08:49:49;100392.22;;;21.54
75431;BMP280;64127;51.488;5.462;2023-10-13T08:52:29;100377.09;;;21.56
75431;BMP280;64127;51.488;5.462;2023-10-13T08:55:21;100362.88;;;21.54
75431;BMP280;64127;51.488;5.462;2023-10-13T08:58:34;100376.19;;;21.60
75431;BMP280;64127;51.488;5.462;2023-10-13T09:01:31;100378.81;;;21.63
75431;BMP280;64127;51.488;5.462;2023-10-13T09:04:19;100356.56;;;21.63
75431;BMP280;64127;51.488;5.462;2023-10-13T09:06:58;100360.94;;;21.70
75431;BMP280;64127;51.488;5.462;2023-10-13T09:12:30;100359.16;;;21.70
75431;BMP280;64127;51.488;5.462;2023-10-13T09:15:08;100344.06;;;21.65
75431;BMP280;64127;51.488;5.462;2023-10-13T09:20:31;100336.03;;;21.69
75431;BMP280;64127;51.488;5.462;2023-10-13T09:23:14;100358.19;;;21.76
75431;BMP280;64127;51.488;5.462;2023-10-13T09:26:16;100351.06;;;21.78
75431;BMP280;64127;51.488;5.462;2023-10-13T09:28:51;100349.25;;;21.79
75431;BMP280;64127;51.488;5.462;2023-10-13T09:31:25;100350.13;;;21.81
75431;BMP280;64127;51.488;5.462;2023-10-13T09:33:59;100342.97;;;21.83
75431;BMP280;64127;51.488;5.462;2023-10-13T09:36:34;100345.59;;;21.87
75431;BMP280;64127;51.488;5.462;2023-10-13T09:39:08;100342.00;;;21.90
75431;BMP280;64127;51.488;5.462;2023-10-13T09:42:02;100336.59;;;21.96
75431;BMP280;64127;51.488;5.462;2023-10-13T09:44:36;100333.75;;;22.06
75431;BMP280;64127;51.488;5.462;2023-10-13T09:47:13;100326.50;;;22.16
75431;BMP280;64127;51.488;5.462;2023-10-13T09:49:51;100324.59;;;22.24
75431;BMP280;64127;51.488;5.462;2023-10-13T09:52:31;100306.84;;;22.20
75431;BMP280;64127;51.488;5.462;2023-10-13T09:55:11;100321.88;;;22.27
75431;BMP280;64127;51.488;5.462;2023-10-13T09:57:54;100320.94;;;22.30
75431;BMP280;64127;51.488;5.462;2023-10-13T10:00:33;100318.25;;;22.31
75431;BMP280;64127;51.488;5.462;2023-10-13T10:03:28;100313.75;;;22.33
75431;BMP280;64127;51.488;5.462;2023-10-13T10:06:06;100308.28;;;22.42
75431;BMP280;64127;51.488;5.462;2023-10-13T10:08:48;100301.06;;;22.49
75431;BMP280;64127;51.488;5.462;2023-10-13T10:17:05;100291.91;;;22.63
75431;BMP280;64127;51.488;5.462;2023-10-13T10:19:51;100284.72;;;22.68
75431;BMP280;64127;51.488;5.462;2023-10-13T10:22:30;100285.59;;;22.67
75431;BMP280;64127;51.488;5.462;2023-10-13T10:25:08;100285.59;;;22.69
75431;BMP280;64127;51.488;5.462;2023-10-13T10:27:59;100289.09;;;22.71
75431;BMP280;64127;51.488;5.462;2023-10-13T10:30:33;100276.56;;;22.74
75431;BMP280;64127;51.488;5.462;2023-10-13T10:33:06;100263.19;;;22.74
75431;BMP280;64127;51.488;5.462;2023-10-13T10:35:46;100273.84;;;22.78
75431;BMP280;64127;51.488;5.462;2023-10-13T10:38:19;100273.84;;;22.78
75431;BMP280;64127;51.488;5.462;2023-10-13T10:41:06;100260.47;;;22.79
75431;BMP280;64127;51.488;5.462;2023-10-13T10:43:39;100264.97;;;22.76
75431;BMP280;64127;51.488;5.462;2023-10-13T10:46:18;100275.53;;;22.83
75431;BMP280;64127;51.488;5.462;2023-10-13T10:48:50;100266.63;;;22.83
75431;BMP280;64127;51.488;5.462;2023-10-13T10:51:28;100271.09;;;22.82
75431;BMP280;64127;51.488;5.462;2023-10-13T10:54:04;100270.13;;;22.85
75431;BMP280;64127;51.488;5.462;2023-10-13T10:56:47;100268.34;;;22.87
75431;BMP280;64127;51.488;5.462;2023-10-13T10:59:24;100268.28;;;22.90
75431;BMP280;64127;51.488;5.462;2023-10-13T11:01:57;100265.53;;;22.94
75431;BMP280;64127;51.488;5.462;2023-10-13T11:04:31;100251.22;;;22.95
75431;BMP280;64127;51.488;5.462;2023-10-13T11:07:07;100257.28;;;23.05
75431;BMP280;64127;51.488;5.462;2023-10-13T11:09:40;100253.75;;;23.03
75431;BMP280;64127;51.488;5.462;2023-10-13T11:12:19;100258.91;;;23.12
75431;BMP280;64127;51.488;5.462;2023-10-13T11:15:06;100248.19;;;23.15
75431;BMP280;64127;51.488;5.462;2023-10-13T11:17:59;100245.44;;;23.18
75431;BMP280;64127;51.488;5.462;2023-10-13T11:20:32;100229.28;;;23.22
75431;BMP280;64127;51.488;5.462;2023-10-13T11:23:15;100225.69;;;23.23
75431;BMP280;64127;51.488;5.462;2023-10-13T11:25:57;100215.94;;;23.21
75431;BMP280;64127;51.488;5.462;2023-10-13T11:28:31;100216.69;;;23.28
75431;BMP280;64127;51.488;5.462;2023-10-13T11:31:06;100206.81;;;23.30
75431;BMP280;64127;51.488;5.462;2023-10-13T11:33:51;100192.63;;;23.26
75431;BMP280;64127;51.488;5.462;2023-10-13T11:36:28;100183.69;;;23.27
75431;BMP280;64127;51.488;5.462;2023-10-13T11:39:05;100184.34;;;23.38
75431;BMP280;64127;51.488;5.462;2023-10-13T11:41:39;100183.41;;;23.42
75431;BMP280;64127;51.488;5.462;2023-10-13T11:44:25;100177.03;;;23.46
75431;BMP280;64127;51.488;5.462;2023-10-13T11:47:02;100167.13;;;23.51
75431;BMP280;64127;51.488;5.462;2023-10-13T11:50:01;100166.97;;;23.57
75431;BMP280;64127;51.488;5.462;2023-10-13T11:52:33;100173.06;;;23.64
75431;BMP280;64127;51.488;5.462;2023-10-13T11:55:05;100172.09;;;23.68
75431;BMP280;64127;51.488;5.462;2023-10-13T11:57:38;100148.13;;;23.62
75431;BMP280;64127;51.488;5.462;2023-10-13T12:00:11;100162.16;;;23.73
75431;BMP280;64127;51.488;5.462;2023-10-13T12:03:18;100161.94;;;23.82
75431;BMP280;64127;51.488;5.462;2023-10-13T12:06:09;100152.00;;;23.86
75431;BMP280;64127;51.488;5.462;2023-10-13T12:08:54;100155.44;;;23.91
75431;BMP280;64127;51.488;5.462;2023-10-13T12:11:26;100150.84;;;23.97
75431;BMP280;64127;51.488;5.462;2023-10-13T12:14:04;100153.31;;;24.05
75431;BMP280;64127;51.488;5.462;2023-10-13T12:16:49;100119.34;;;24.07
75431;BMP280;64127;51.488;5.462;2023-10-13T12:19:25;100148.19;;;24.31
75431;BMP280;64127;51.488;5.462;2023-10-13T12:21:58;100143.31;;;24.45
75431;BMP280;64127;51.488;5.462;2023-10-13T12:24:37;100140.41;;;24.54
75431;BMP280;64127;51.488;5.462;2023-10-13T12:27:14;100127.00;;;24.54
75431;BMP280;64127;51.488;5.462;2023-10-13T12:29:53;100126.09;;;24.55
75431;BMP280;64127;51.488;5.462;2023-10-13T12:32:28;100142.13;;;24.57
75431;BMP280;64127;51.488;5.462;2023-10-13T12:35:03;100106.53;;;24.52
75431;BMP280;64127;51.488;5.462;2023-10-13T12:37:35;100121.03;;;24.76
75431;BMP280;64127;51.488;5.462;2023-10-13T12:40:12;100130.72;;;24.80
75431;BMP280;64127;51.488;5.462;2023-10-13T12:43:04;100113.09;;;24.71
75431;BMP280;64127;51.488;5.462;2023-10-13T12:45:55;100114.13;;;24.67
75431;BMP280;64127;51.488;5.462;2023-10-13T12:48:48;100110.72;;;24.60
75431;BMP280;64127;51.488;5.462;2023-10-13T12:51:39;100100.09;;;24.57
75431;BMP280;64127;51.488;5.462;2023-10-13T12:54:11;100108.97;;;24.59
75431;BMP280;64127;51.488;5.462;2023-10-13T12:56:48;100113.50;;;24.57
75431;BMP280;64127;51.488;5.462;2023-10-13T12:59:20;100108.34;;;24.50
75431;BMP280;64127;51.488;5.462;2023-10-13T13:01:58;100111.81;;;24.55
75431;BMP280;64127;51.488;5.462;2023-10-13T13:04:31;100120.63;;;24.58
75431;BMP280;64127;51.488;5.462;2023-10-13T13:07:08;100117.88;;;24.61
75431;BMP280;64127;51.488;5.462;2023-10-13T13:09:45;100106.16;;;24.64
75431;BMP280;64127;51.488;5.462;2023-10-13T13:12:17;100108.72;;;24.68
75431;BMP280;64127;51.488;5.462;2023-10-13T13:14:49;100094.56;;;24.63
75431;BMP280;64127;51.488;5.462;2023-10-13T13:17:26;100098.88;;;24.69
75431;BMP280;64127;51.488;5.462;2023-10-13T13:19:59;100078.81;;;24.51
75431;BMP280;64127;51.488;5.462;2023-10-13T13:22:31;100103.50;;;24.62
75431;BMP280;64127;51.488;5.462;2023-10-13T13:25:04;100100.72;;;24.67
75431;BMP280;64127;51.488;5.462;2023-10-13T13:27:42;100075.16;;;24.55
75431;BMP280;64127;51.488;5.462;2023-10-13T13:30:14;100092.72;;;24.65
75431;BMP280;64127;51.488;5.462;2023-10-13T13:32:47;100107.94;;;24.65
75431;BMP280;64127;51.488;5.462;2023-10-13T13:35:20;100103.44;;;24.65
75431;BMP280;64127;51.488;5.462;2023-10-13T13:37:52;100090.91;;;24.66
75431;BMP280;64127;51.488;5.462;2023-10-13T13:40:25;100082.34;;;24.53
75431;BMP280;64127;51.488;5.462;2023-10-13T13:42:57;100098.16;;;24.62
75431;BMP280;64127;51.488;5.462;2023-10-13T13:45:29;100100.00;;;24.60
75431;BMP280;64127;51.488;5.462;2023-10-13T13:48:01;100091.13;;;24.58
75431;BMP280;64127;51.488;5.462;2023-10-13T13:50:40;100118.03;;;24.55
75431;BMP280;64127;51.488;5.462;2023-10-13T13:53:13;100090.44;;;24.52
75431;BMP280;64127;51.488;5.462;2023-10-13T13:55:45;100082.34;;;24.53
75431;BMP280;64127;51.488;5.462;2023-10-13T13:58:18;100082.34;;;24.53
75431;BMP280;64127;51.488;5.462;2023-10-13T14:00:50;100092.16;;;24.54
75431;BMP280;64127;51.488;5.462;2023-10-13T14:03:22;100091.22;;;24.55
75431;BMP280;64127;51.488;5.462;2023-10-13T14:06:03;100082.25;;;24.56
75431;BMP280;64127;51.488;5.462;2023-10-13T14:08:35;100092.06;;;24.57
75431;BMP280;64127;51.488;5.462;2023-10-13T14:11:08;100097.38;;;24.59
75431;BMP280;64127;51.488;5.462;2023-10-13T14:13:45;100082.16;;;24.59
75431;BMP280;64127;51.488;5.462;2023-10-13T14:16:20;100075.06;;;24.58
75431;BMP280;64127;51.488;5.462;2023-10-13T14:18:54;100088.47;;;24.58
75431;BMP280;64127;51.488;5.462;2023-10-13T14:21:27;100092.88;;;24.59
75431;BMP280;64127;51.488;5.462;2023-10-13T14:23:59;100082.16;;;24.59
75431;BMP280;64127;51.488;5.462;2023-10-13T14:26:33;100083.03;;;24.60
75431;BMP280;64127;51.488;5.462;2023-10-13T14:29:07;100083.09;;;24.58
75431;BMP280;64127;51.488;5.462;2023-10-13T14:31:41;100086.66;;;24.59
75431;BMP280;64127;51.488;5.462;2023-10-13T14:34:14;100080.44;;;24.57
75431;BMP280;64127;51.488;5.462;2023-10-13T14:36:46;100082.94;;;24.63
75431;BMP280;64127;51.488;5.462;2023-10-13T14:39:20;100082.94;;;24.63
75431;BMP280;64127;51.488;5.462;2023-10-13T14:41:52;100090.16;;;24.61
75431;BMP280;64127;51.488;5.462;2023-10-13T14:44:25;100072.28;;;24.61
75431;BMP280;64127;51.488;5.462;2023-10-13T14:46:59;100060.09;;;24.50
75431;BMP280;64127;51.488;5.462;2023-10-13T14:49:31;100093.75;;;24.60
75431;BMP280;64127;51.488;5.462;2023-10-13T14:52:03;100085.78;;;24.58
75431;BMP280;64127;51.488;5.462;2023-10-13T14:54:35;100085.00;;;24.53
75431;BMP280;64127;51.488;5.462;2023-10-13T14:57:08;100086.72;;;24.56
75431;BMP280;64127;51.488;5.462;2023-10-13T14:59:40;100092.16;;;24.53
75431;BMP280;64127;51.488;5.462;2023-10-13T15:02:12;100081.63;;;24.47
75431;BMP280;64127;51.488;5.462;2023-10-13T15:04:44;100067.53;;;24.39
75431;BMP280;64127;51.488;5.462;2023-10-13T15:07:20;100076.47;;;24.39
75431;BMP280;64127;51.488;5.462;2023-10-13T15:09:54;100081.09;;;24.34
75431;BMP280;64127;51.488;5.462;2023-10-13T15:12:28;100077.66;;;24.29
75431;BMP280;64127;51.488;5.462;2023-10-13T15:15:01;100077.75;;;24.26
75431;BMP280;64127;51.488;5.462;2023-10-13T15:17:33;100076.91;;;24.24